sensor_id;sensor_type;location;lat;lon;timestamp;temperature;humidity
40848;DHT22;26570;50.962;5.340;2024-02-14T00:01:03;9.90;99.90
40848;DHT22;26570;50.962;5.340;2024-02-14T00:03:58;9.90;99.90
40848;DHT22;26570;50.962;5.340;2024-02-14T00:06:47;9.80;99.90
40848;DHT22;26570;50.962;5.340;2024-02-14T00:09:35;9.80;99.90
40848;DHT22;26570;50.962;5.340;2024-02-14T00:12:35;9.90;99.90
40848;DHT22;26570;50.962;5.340;2024-02-14T00:15:31;10.00;99.90
40848;DHT22;26570;50.962;5.340;2024-02-14T00:18:15;10.10;99.90
40848;DHT22;26570;50.962;5.340;2024-02-14T00:21:21;10.00;99.90
40848;DHT22;26570;50.962;5.340;2024-02-14T00:24:06;10.10;99.90
40848;DHT22;26570;50.962;5.340;2024-02-14T00:26:51;10.20;99.90
40848;DHT22;26570;50.962;5.340;2024-02-14T00:29:49;10.10;99.90
40848;DHT22;26570;50.962;5.340;2024-02-14T00:33:03;10.20;99.90
40848;DHT22;26570;50.962;5.340;2024-02-14T00:35:56;10.20;99.90
40848;DHT22;26570;50.962;5.340;2024-02-14T00:39:22;10.20;99.90
40848;DHT22;26570;50.962;5.340;2024-02-14T00:43:02;10.20;99.90
40848;DHT22;26570;50.962;5.340;2024-02-14T00:45:47;10.20;99.90
40848;DHT22;26570;50.962;5.340;2024-02-14T00:48:38;10.30;99.90
40848;DHT22;26570;50.962;5.340;2024-02-14T00:51:26;10.20;99.90
40848;DHT22;26570;50.962;5.340;2024-02-14T00:54:41;10.30;99.90
40848;DHT22;26570;50.962;5.340;2024-02-14T00:57:29;10.50;99.90
40848;DHT22;26570;50.962;5.340;2024-02-14T01:00:18;10.40;99.90
40848;DHT22;26570;50.962;5.340;2024-02-14T01:03:03;10.40;99.90
40848;DHT22;26570;50.962;5.340;2024-02-14T01:06:18;10.40;99.90
40848;DHT22;26570;50.962;5.340;2024-02-14T01:09:06;10.40;99.90
40848;DHT22;26570;50.962;5.340;2024-02-14T01:11:51;10.50;99.90
40848;DHT22;26570;50.962;5.340;2024-02-14T01:14:38;10.30;99.90
40848;DHT22;26570;50.962;5.340;2024-02-14T01:17:41;10.40;99.90
40848;DHT22;26570;50.962;5.340;2024-02-14T01:20:32;10.30;99.90
40848;DHT22;26570;50.962;5.340;2024-02-14T01:23:50;10.20;99.90
40848;DHT22;26570;50.962;5.340;2024-02-14T01:26:51;10.20;99.90
40848;DHT22;26570;50.962;5.340;2024-02-14T01:30:01;10.30;99.90
40848;DHT22;26570;50.962;5.340;2024-02-14T01:33:17;10.30;99.90
40848;DHT22;26570;50.962;5.340;2024-02-14T01:36:04;10.30;99.90
40848;DHT22;26570;50.962;5.340;2024-02-14T01:39:11;10.30;99.90
40848;DHT22;26570;50.962;5.340;2024-02-14T01:42:27;10.20;99.90
40848;DHT22;26570;50.962;5.340;2024-02-14T01:45:27;10.40;99.90
40848;DHT22;26570;50.962;5.340;2024-02-14T01:48:44;10.30;99.90
40848;DHT22;26570;50.962;5.340;2024-02-14T01:51:36;10.30;99.90
40848;DHT22;26570;50.962;5.340;2024-02-14T01:54:21;10.20;99.90
40848;DHT22;26570;50.962;5.340;2024-02-14T01:57:11;10.30;99.90
40848;DHT22;26570;50.962;5.340;2024-02-14T02:00:14;10.30;99.90
40848;DHT22;26570;50.962;5.340;2024-02-14T02:03:08;10.20;99.90
40848;DHT22;26570;50.962;5.340;2024-02-14T02:09:52;10.30;99.90
40848;DHT22;26570;50.962;5.340;2024-02-14T02:13:02;10.30;99.90
40848;DHT22;26570;50.962;5.340;2024-02-14T02:15:47;10.30;99.90
40848;DHT22;26570;50.962;5.340;2024-02-14T02:19:00;10.50;99.90
40848;DHT22;26570;50.962;5.340;2024-02-14T02:22:24;10.40;99.90
40848;DHT22;26570;50.962;5.340;2024-02-14T02:25:25;10.40;99.90
40848;DHT22;26570;50.962;5.340;2024-02-14T02:28:21;10.20;99.90
40848;DHT22;26570;50.962;5.340;2024-02-14T02:31:50;10.30;99.90
40848;DHT22;26570;50.962;5.340;2024-02-14T02:35:15;10.40;99.90
40848;DHT22;26570;50.962;5.340;2024-02-14T02:38:01;10.30;99.90
40848;DHT22;26570;50.962;5.340;2024-02-14T02:41:11;10.30;99.90
40848;DHT22;26570;50.962;5.340;2024-02-14T02:43:58;10.20;99.90
40848;DHT22;26570;50.962;5.340;2024-02-14T02:47:19;10.30;99.90
40848;DHT22;26570;50.962;5.340;2024-02-14T02:50:11;10.40;99.90
40848;DHT22;26570;50.962;5.340;2024-02-14T02:53:01;10.50;99.90
40848;DHT22;26570;50.962;5.340;2024-02-14T02:56:13;10.40;99.90
40848;DHT22;26570;50.962;5.340;2024-02-14T02:59:00;10.50;99.90
40848;DHT22;26570;50.962;5.340;2024-02-14T03:01:50;10.60;99.90
40848;DHT22;26570;50.962;5.340;2024-02-14T03:04:46;10.60;99.90
40848;DHT22;26570;50.962;5.340;2024-02-14T03:08:03;10.50;99.90
40848;DHT22;26570;50.962;5.340;2024-02-14T03:11:07;10.50;99.90
40848;DHT22;26570;50.962;5.340;2024-02-14T03:13:52;10.50;99.90
40848;DHT22;26570;50.962;5.340;2024-02-14T03:16:37;10.50;99.90
40848;DHT22;26570;50.962;5.340;2024-02-14T03:19:24;10.60;99.90
40848;DHT22;26570;50.962;5.340;2024-02-14T03:22:23;10.40;99.90
40848;DHT22;26570;50.962;5.340;2024-02-14T03:25:43;10.40;99.90
40848;DHT22;26570;50.962;5.340;2024-02-14T03:29:00;10.40;99.90
40848;DHT22;26570;50.962;5.340;2024-02-14T03:31:49;10.30;99.90
40848;DHT22;26570;50.962;5.340;2024-02-14T03:38:19;10.30;99.90
40848;DHT22;26570;50.962;5.340;2024-02-14T03:41:20;10.40;99.90
40848;DHT22;26570;50.962;5.340;2024-02-14T03:47:48;10.50;99.90
40848;DHT22;26570;50.962;5.340;2024-02-14T03:50:45;10.30;99.90
40848;DHT22;26570;50.962;5.340;2024-02-14T03:53:36;10.40;99.90
40848;DHT22;26570;50.962;5.340;2024-02-14T03:56:22;10.50;99.90
40848;DHT22;26570;50.962;5.340;2024-02-14T03:59:08;10.70;99.90
40848;DHT22;26570;50.962;5.340;2024-02-14T04:01:56;10.70;99.90
40848;DHT22;26570;50.962;5.340;2024-02-14T04:05:01;10.50;99.90
40848;DHT22;26570;50.962;5.340;2024-02-14T04:07:48;10.40;99.90
40848;DHT22;26570;50.962;5.340;2024-02-14T04:10:39;10.40;99.90
40848;DHT22;26570;50.962;5.340;2024-02-14T04:13:35;10.40;99.90
40848;DHT22;26570;50.962;5.340;2024-02-14T04:16:28;10.40;99.90
40848;DHT22;26570;50.962;5.340;2024-02-14T04:19:37;10.60;99.90
40848;DHT22;26570;50.962;5.340;2024-02-14T04:22:28;10.40;99.90
40848;DHT22;26570;50.962;5.340;2024-02-14T04:25:13;10.40;99.90
40848;DHT22;26570;50.962;5.340;2024-02-14T04:28:34;10.60;99.90
40848;DHT22;26570;50.962;5.340;2024-02-14T04:31:28;10.50;99.90
40848;DHT22;26570;50.962;5.340;2024-02-14T04:34:57;10.30;99.90
40848;DHT22;26570;50.962;5.340;2024-02-14T04:37:52;10.30;99.90
40848;DHT22;26570;50.962;5.340;2024-02-14T04:40:45;10.50;99.90
40848;DHT22;26570;50.962;5.340;2024-02-14T04:43:33;10.50;99.90
40848;DHT22;26570;50.962;5.340;2024-02-14T04:46:49;10.50;99.90
40848;DHT22;26570;50.962;5.340;2024-02-14T04:50:08;10.50;99.90
40848;DHT22;26570;50.962;5.340;2024-02-14T04:53:26;10.50;99.90
40848;DHT22;26570;50.962;5.340;2024-02-14T04:56:21;10.60;99.90
40848;DHT22;26570;50.962;5.340;2024-02-14T04:59:14;10.50;99.90
40848;DHT22;26570;50.962;5.340;2024-02-14T05:02:07;10.50;99.90
40848;DHT22;26570;50.962;5.340;2024-02-14T05:05:27;10.70;99.90
40848;DHT22;26570;50.962;5.340;2024-02-14T05:08:18;10.60;99.90
40848;DHT22;26570;50.962;5.340;2024-02-14T05:11:03;10.60;99.90
40848;DHT22;26570;50.962;5.340;2024-02-14T05:13:57;10.60;99.90
40848;DHT22;26570;50.962;5.340;2024-02-14T05:16:55;10.70;99.90
40848;DHT22;26570;50.962;5.340;2024-02-14T05:24:33;10.60;99.90
40848;DHT22;26570;50.962;5.340;2024-02-14T05:27:27;10.70;99.90
40848;DHT22;26570;50.962;5.340;2024-02-14T05:30:13;10.70;99.90
40848;DHT22;26570;50.962;5.340;2024-02-14T05:33:02;10.80;99.90
40848;DHT22;26570;50.962;5.340;2024-02-14T05:35:59;11.00;99.90
40848;DHT22;26570;50.962;5.340;2024-02-14T05:38:50;10.90;99.90
40848;DHT22;26570;50.962;5.340;2024-02-14T05:41:50;10.80;99.90
40848;DHT22;26570;50.962;5.340;2024-02-14T05:44:48;10.90;99.90
40848;DHT22;26570;50.962;5.340;2024-02-14T05:51:11;11.00;99.90
40848;DHT22;26570;50.962;5.340;2024-02-14T05:54:08;11.00;99.90
40848;DHT22;26570;50.962;5.340;2024-02-14T05:56:58;10.90;99.90
40848;DHT22;26570;50.962;5.340;2024-02-14T05:59:51;11.00;99.90
40848;DHT22;26570;50.962;5.340;2024-02-14T06:03:03;11.00;99.90
40848;DHT22;26570;50.962;5.340;2024-02-14T06:06:22;10.90;99.90
40848;DHT22;26570;50.962;5.340;2024-02-14T06:09:10;10.90;99.90
40848;DHT22;26570;50.962;5.340;2024-02-14T06:12:29;11.00;99.90
40848;DHT22;26570;50.962;5.340;2024-02-14T06:15:23;10.90;99.90
40848;DHT22;26570;50.962;5.340;2024-02-14T06:18:41;11.00;99.90
40848;DHT22;26570;50.962;5.340;2024-02-14T06:25:01;10.90;99.90
40848;DHT22;26570;50.962;5.340;2024-02-14T06:28:06;11.10;99.90
40848;DHT22;26570;50.962;5.340;2024-02-14T06:31:22;11.00;99.90
40848;DHT22;26570;50.962;5.340;2024-02-14T06:34:38;11.00;99.90
40848;DHT22;26570;50.962;5.340;2024-02-14T06:37:23;11.10;99.90
40848;DHT22;26570;50.962;5.340;2024-02-14T06:40:08;11.00;99.90
40848;DHT22;26570;50.962;5.340;2024-02-14T06:42:55;11.00;99.90
40848;DHT22;26570;50.962;5.340;2024-02-14T06:45:40;11.10;99.90
40848;DHT22;26570;50.962;5.340;2024-02-14T06:48:25;11.00;99.90
40848;DHT22;26570;50.962;5.340;2024-02-14T06:51:10;11.10;99.90
40848;DHT22;26570;50.962;5.340;2024-02-14T06:54:18;11.10;99.90
40848;DHT22;26570;50.962;5.340;2024-02-14T06:57:04;11.40;99.90
40848;DHT22;26570;50.962;5.340;2024-02-14T06:59:49;11.50;99.90
40848;DHT22;26570;50.962;5.340;2024-02-14T07:02:34;11.40;99.90
40848;DHT22;26570;50.962;5.340;2024-02-14T07:05:42;11.40;99.90
40848;DHT22;26570;50.962;5.340;2024-02-14T07:08:26;11.30;99.90
40848;DHT22;26570;50.962;5.340;2024-02-14T07:11:13;11.30;99.90
40848;DHT22;26570;50.962;5.340;2024-02-14T07:13:57;11.30;99.90
40848;DHT22;26570;50.962;5.340;2024-02-14T07:16:43;11.30;99.90
40848;DHT22;26570;50.962;5.340;2024-02-14T07:19:28;11.40;99.90
40848;DHT22;26570;50.962;5.340;2024-02-14T07:22:13;11.50;99.90
40848;DHT22;26570;50.962;5.340;2024-02-14T07:24:59;11.50;99.90
40848;DHT22;26570;50.962;5.340;2024-02-14T07:28:06;11.30;99.90
40848;DHT22;26570;50.962;5.340;2024-02-14T07:30:51;11.30;99.90
40848;DHT22;26570;50.962;5.340;2024-02-14T07:33:59;11.30;99.90
40848;DHT22;26570;50.962;5.340;2024-02-14T07:36:44;11.20;99.90
40848;DHT22;26570;50.962;5.340;2024-02-14T07:39:30;11.40;99.90
40848;DHT22;26570;50.962;5.340;2024-02-14T07:42:15;11.40;99.90
40848;DHT22;26570;50.962;5.340;2024-02-14T07:45:00;11.50;99.90
40848;DHT22;26570;50.962;5.340;2024-02-14T07:47:49;11.60;99.90
40848;DHT22;26570;50.962;5.340;2024-02-14T07:50:35;11.60;99.90
40848;DHT22;26570;50.962;5.340;2024-02-14T07:53:20;11.80;99.90
40848;DHT22;26570;50.962;5.340;2024-02-14T07:56:11;11.90;99.90
40848;DHT22;26570;50.962;5.340;2024-02-14T07:58:57;11.80;99.90
40848;DHT22;26570;50.962;5.340;2024-02-14T08:01:43;11.90;99.90
40848;DHT22;26570;50.962;5.340;2024-02-14T08:04:28;11.80;99.90
40848;DHT22;26570;50.962;5.340;2024-02-14T08:07:13;11.90;99.90
40848;DHT22;26570;50.962;5.340;2024-02-14T08:09:58;11.90;99.90
40848;DHT22;26570;50.962;5.340;2024-02-14T08:12:43;12.00;99.90
40848;DHT22;26570;50.962;5.340;2024-02-14T08:15:28;12.20;99.90
40848;DHT22;26570;50.962;5.340;2024-02-14T08:18:13;12.10;99.90
40848;DHT22;26570;50.962;5.340;2024-02-14T08:20:59;12.10;99.90
40848;DHT22;26570;50.962;5.340;2024-02-14T08:23:44;12.20;99.90
40848;DHT22;26570;50.962;5.340;2024-02-14T08:26:29;12.10;99.90
40848;DHT22;26570;50.962;5.340;2024-02-14T08:29:36;12.10;99.90
40848;DHT22;26570;50.962;5.340;2024-02-14T08:32:21;12.10;99.90
40848;DHT22;26570;50.962;5.340;2024-02-14T08:35:29;12.20;99.90
40848;DHT22;26570;50.962;5.340;2024-02-14T08:38:15;12.10;99.90
40848;DHT22;26570;50.962;5.340;2024-02-14T08:41:03;12.20;99.90
40848;DHT22;26570;50.962;5.340;2024-02-14T08:43:48;12.20;99.90
40848;DHT22;26570;50.962;5.340;2024-02-14T08:46:33;12.10;99.90
40848;DHT22;26570;50.962;5.340;2024-02-14T08:49:41;12.40;99.90
40848;DHT22;26570;50.962;5.340;2024-02-14T08:52:27;12.40;99.90
40848;DHT22;26570;50.962;5.340;2024-02-14T08:55:13;12.30;99.90
40848;DHT22;26570;50.962;5.340;2024-02-14T08:58:01;12.30;99.90
40848;DHT22;26570;50.962;5.340;2024-02-14T09:01:08;12.40;99.90
40848;DHT22;26570;50.962;5.340;2024-02-14T09:03:56;12.30;99.90
40848;DHT22;26570;50.962;5.340;2024-02-14T09:06:40;12.30;99.90
40848;DHT22;26570;50.962;5.340;2024-02-14T09:09:25;12.30;99.90
40848;DHT22;26570;50.962;5.340;2024-02-14T09:12:10;12.30;99.90
40848;DHT22;26570;50.962;5.340;2024-02-14T09:14:56;12.40;99.90
40848;DHT22;26570;50.962;5.340;2024-02-14T09:17:42;12.30;99.90
40848;DHT22;26570;50.962;5.340;2024-02-14T09:20:27;12.20;99.90
40848;DHT22;26570;50.962;5.340;2024-02-14T09:23:13;12.30;99.90
40848;DHT22;26570;50.962;5.340;2024-02-14T09:26:05;12.00;99.90
40848;DHT22;26570;50.962;5.340;2024-02-14T09:28:50;12.00;99.90
40848;DHT22;26570;50.962;5.340;2024-02-14T09:31:38;12.10;99.90
40848;DHT22;26570;50.962;5.340;2024-02-14T09:34:26;12.10;99.90
40848;DHT22;26570;50.962;5.340;2024-02-14T09:37:14;12.00;99.90
40848;DHT22;26570;50.962;5.340;2024-02-14T09:40:24;12.20;99.90
40848;DHT22;26570;50.962;5.340;2024-02-14T09:43:43;12.20;99.90
40848;DHT22;26570;50.962;5.340;2024-02-14T09:46:32;12.10;99.90
40848;DHT22;26570;50.962;5.340;2024-02-14T09:49:21;12.10;99.90
40848;DHT22;26570;50.962;5.340;2024-02-14T09:52:13;12.30;99.90
40848;DHT22;26570;50.962;5.340;2024-02-14T09:55:01;12.10;99.90
40848;DHT22;26570;50.962;5.340;2024-02-14T09:57:53;12.30;99.90
40848;DHT22;26570;50.962;5.340;2024-02-14T10:00:39;12.40;99.90
40848;DHT22;26570;50.962;5.340;2024-02-14T10:03:25;12.30;99.90
40848;DHT22;26570;50.962;5.340;2024-02-14T10:06:33;12.40;99.90
40848;DHT22;26570;50.962;5.340;2024-02-14T10:09:20;12.50;99.90
40848;DHT22;26570;50.962;5.340;2024-02-14T10:12:32;12.50;99.90
40848;DHT22;26570;50.962;5.340;2024-02-14T10:15:20;12.40;99.90
40848;DHT22;26570;50.962;5.340;2024-02-14T10:18:05;12.40;99.90
40848;DHT22;26570;50.962;5.340;2024-02-14T10:20:57;12.20;99.90
40848;DHT22;26570;50.962;5.340;2024-02-14T10:23:43;12.30;99.90
40848;DHT22;26570;50.962;5.340;2024-02-14T10:26:29;12.40;99.90
40848;DHT22;26570;50.962;5.340;2024-02-14T10:29:15;12.50;99.90
40848;DHT22;26570;50.962;5.340;2024-02-14T10:32:00;12.50;99.90
40848;DHT22;26570;50.962;5.340;2024-02-14T10:34:46;12.40;99.90
40848;DHT22;26570;50.962;5.340;2024-02-14T10:37:31;12.60;99.90
40848;DHT22;26570;50.962;5.340;2024-02-14T10:40:19;12.60;99.90
40848;DHT22;26570;50.962;5.340;2024-02-14T10:43:10;12.80;99.90
40848;DHT22;26570;50.962;5.340;2024-02-14T10:46:40;12.80;99.90
40848;DHT22;26570;50.962;5.340;2024-02-14T10:49:20;12.90;99.90
40848;DHT22;26570;50.962;5.340;2024-02-14T10:52:06;12.60;99.90
40848;DHT22;26570;50.962;5.340;2024-02-14T10:54:56;12.70;99.90
40848;DHT22;26570;50.962;5.340;2024-02-14T10:57:46;12.60;99.90
40848;DHT22;26570;50.962;5.340;2024-02-14T11:00:31;12.70;99.90
40848;DHT22;26570;50.962;5.340;2024-02-14T11:03:17;12.70;99.90
40848;DHT22;26570;50.962;5.340;2024-02-14T11:06:03;12.60;99.90
40848;DHT22;26570;50.962;5.340;2024-02-14T11:09:12;12.60;99.90
40848;DHT22;26570;50.962;5.340;2024-02-14T11:12:01;12.70;99.90
40848;DHT22;26570;50.962;5.340;2024-02-14T11:14:47;12.60;99.90
40848;DHT22;26570;50.962;5.340;2024-02-14T11:17:33;12.70;99.90
40848;DHT22;26570;50.962;5.340;2024-02-14T11:20:20;12.80;99.90
40848;DHT22;26570;50.962;5.340;2024-02-14T11:23:09;12.60;99.90
40848;DHT22;26570;50.962;5.340;2024-02-14T11:26:05;12.70;99.90
40848;DHT22;26570;50.962;5.340;2024-02-14T11:29:02;12.70;99.90
40848;DHT22;26570;50.962;5.340;2024-02-14T11:31:48;12.80;99.90
40848;DHT22;26570;50.962;5.340;2024-02-14T11:34:36;12.70;99.90
40848;DHT22;26570;50.962;5.340;2024-02-14T11:37:30;12.80;99.90
40848;DHT22;26570;50.962;5.340;2024-02-14T11:40:19;12.80;99.90
40848;DHT22;26570;50.962;5.340;2024-02-14T11:43:15;13.00;99.90
40848;DHT22;26570;50.962;5.340;2024-02-14T11:46:04;13.00;99.90
40848;DHT22;26570;50.962;5.340;2024-02-14T11:48:49;13.20;99.90
40848;DHT22;26570;50.962;5.340;2024-02-14T11:51:37;13.10;99.90
40848;DHT22;26570;50.962;5.340;2024-02-14T11:54:26;12.70;99.90
40848;DHT22;26570;50.962;5.340;2024-02-14T11:57:17;12.80;99.90
40848;DHT22;26570;50.962;5.340;2024-02-14T12:00:05;13.00;99.90
40848;DHT22;26570;50.962;5.340;2024-02-14T12:02:53;12.90;99.90
40848;DHT22;26570;50.962;5.340;2024-02-14T12:06:02;12.90;99.90
40848;DHT22;26570;50.962;5.340;2024-02-14T12:08:48;12.70;99.90
40848;DHT22;26570;50.962;5.340;2024-02-14T12:11:33;12.80;99.90
40848;DHT22;26570;50.962;5.340;2024-02-14T12:14:43;12.70;99.90
40848;DHT22;26570;50.962;5.340;2024-02-14T12:17:28;12.80;99.90
40848;DHT22;26570;50.962;5.340;2024-02-14T12:20:40;13.00;99.90
40848;DHT22;26570;50.962;5.340;2024-02-14T12:23:25;13.20;99.90
40848;DHT22;26570;50.962;5.340;2024-02-14T12:26:37;13.00;99.90
40848;DHT22;26570;50.962;5.340;2024-02-14T12:29:23;13.00;99.90
40848;DHT22;26570;50.962;5.340;2024-02-14T12:32:09;13.10;99.90
40848;DHT22;26570;50.962;5.340;2024-02-14T12:34:56;13.20;99.90
40848;DHT22;26570;50.962;5.340;2024-02-14T12:38:09;13.10;99.90
40848;DHT22;26570;50.962;5.340;2024-02-14T12:40:54;13.10;99.90
40848;DHT22;26570;50.962;5.340;2024-02-14T12:43:40;12.90;99.90
40848;DHT22;26570;50.962;5.340;2024-02-14T12:46:25;12.80;99.90
40848;DHT22;26570;50.962;5.340;2024-02-14T12:49:13;13.00;99.90
40848;DHT22;26570;50.962;5.340;2024-02-14T12:51:59;13.20;99.90
40848;DHT22;26570;50.962;5.340;2024-02-14T12:54:44;13.00;99.90
40848;DHT22;26570;50.962;5.340;2024-02-14T12:57:28;13.00;99.90
40848;DHT22;26570;50.962;5.340;2024-02-14T13:00:14;12.90;99.90
40848;DHT22;26570;50.962;5.340;2024-02-14T13:02:59;13.00;99.90
40848;DHT22;26570;50.962;5.340;2024-02-14T13:05:45;13.00;99.90
40848;DHT22;26570;50.962;5.340;2024-02-14T13:08:31;13.00;99.90
40848;DHT22;26570;50.962;5.340;2024-02-14T13:11:16;13.10;99.90
40848;DHT22;26570;50.962;5.340;2024-02-14T13:14:03;13.00;99.90
40848;DHT22;26570;50.962;5.340;2024-02-14T13:16:48;12.90;99.90
40848;DHT22;26570;50.962;5.340;2024-02-14T13:19:36;12.90;99.90
40848;DHT22;26570;50.962;5.340;2024-02-14T13:22:21;13.00;99.90
40848;DHT22;26570;50.962;5.340;2024-02-14T13:25:08;13.10;99.90
40848;DHT22;26570;50.962;5.340;2024-02-14T13:27:53;13.10;99.90
40848;DHT22;26570;50.962;5.340;2024-02-14T13:31:01;12.90;99.90
40848;DHT22;26570;50.962;5.340;2024-02-14T13:33:47;12.90;99.90
40848;DHT22;26570;50.962;5.340;2024-02-14T13:36:31;13.00;99.90
40848;DHT22;26570;50.962;5.340;2024-02-14T13:39:16;13.00;99.90
40848;DHT22;26570;50.962;5.340;2024-02-14T13:42:01;13.10;99.90
40848;DHT22;26570;50.962;5.340;2024-02-14T13:44:46;13.20;99.90
40848;DHT22;26570;50.962;5.340;2024-02-14T13:47:31;13.20;99.90
40848;DHT22;26570;50.962;5.340;2024-02-14T13:50:16;13.10;99.90
40848;DHT22;26570;50.962;5.340;2024-02-14T13:53:01;13.10;99.90
40848;DHT22;26570;50.962;5.340;2024-02-14T13:55:46;13.10;99.90
40848;DHT22;26570;50.962;5.340;2024-02-14T13:58:54;13.00;99.90
40848;DHT22;26570;50.962;5.340;2024-02-14T14:01:39;13.00;99.90
40848;DHT22;26570;50.962;5.340;2024-02-14T14:04:24;13.00;99.90
40848;DHT22;26570;50.962;5.340;2024-02-14T14:07:13;13.00;99.90
40848;DHT22;26570;50.962;5.340;2024-02-14T14:09:58;13.10;99.90
40848;DHT22;26570;50.962;5.340;2024-02-14T14:12:43;13.10;99.90
40848;DHT22;26570;50.962;5.340;2024-02-14T14:15:28;13.10;99.90
40848;DHT22;26570;50.962;5.340;2024-02-14T14:18:14;13.10;99.90
40848;DHT22;26570;50.962;5.340;2024-02-14T14:20:58;13.10;99.90
40848;DHT22;26570;50.962;5.340;2024-02-14T14:23:43;13.20;99.90
40848;DHT22;26570;50.962;5.340;2024-02-14T14:26:28;13.20;99.90
40848;DHT22;26570;50.962;5.340;2024-02-14T14:29:13;13.30;99.90
40848;DHT22;26570;50.962;5.340;2024-02-14T14:31:58;13.20;99.90
40848;DHT22;26570;50.962;5.340;2024-02-14T14:34:43;13.30;99.90
40848;DHT22;26570;50.962;5.340;2024-02-14T14:37:28;13.20;99.90
40848;DHT22;26570;50.962;5.340;2024-02-14T14:40:13;13.30;99.90
40848;DHT22;26570;50.962;5.340;2024-02-14T14:43:00;13.30;99.90
40848;DHT22;26570;50.962;5.340;2024-02-14T14:45:45;13.20;99.90
40848;DHT22;26570;50.962;5.340;2024-02-14T14:48:31;13.10;99.90
40848;DHT22;26570;50.962;5.340;2024-02-14T14:51:16;13.20;99.90
40848;DHT22;26570;50.962;5.340;2024-02-14T14:54:01;13.20;99.90
40848;DHT22;26570;50.962;5.340;2024-02-14T14:56:46;13.20;99.90
40848;DHT22;26570;50.962;5.340;2024-02-14T14:59:32;13.20;99.90
40848;DHT22;26570;50.962;5.340;2024-02-14T15:02:19;13.30;99.90
40848;DHT22;26570;50.962;5.340;2024-02-14T15:05:05;13.40;99.90
40848;DHT22;26570;50.962;5.340;2024-02-14T15:07:50;13.30;99.90
40848;DHT22;26570;50.962;5.340;2024-02-14T15:10:35;13.30;99.90
40848;DHT22;26570;50.962;5.340;2024-02-14T15:13:23;13.30;99.90
40848;DHT22;26570;50.962;5.340;2024-02-14T15:16:08;13.40;99.90
40848;DHT22;26570;50.962;5.340;2024-02-14T15:18:53;13.30;99.90
40848;DHT22;26570;50.962;5.340;2024-02-14T15:21:38;13.10;99.90
40848;DHT22;26570;50.962;5.340;2024-02-14T15:24:23;13.20;99.90
40848;DHT22;26570;50.962;5.340;2024-02-14T15:27:11;13.20;99.90
40848;DHT22;26570;50.962;5.340;2024-02-14T15:30:06;13.20;99.90
40848;DHT22;26570;50.962;5.340;2024-02-14T15:33:09;13.30;99.90
40848;DHT22;26570;50.962;5.340;2024-02-14T15:36:11;13.30;99.90
40848;DHT22;26570;50.962;5.340;2024-02-14T15:38:59;13.40;99.90
40848;DHT22;26570;50.962;5.340;2024-02-14T15:41:44;13.60;99.90
40848;DHT22;26570;50.962;5.340;2024-02-14T15:44:29;13.40;99.90
40848;DHT22;26570;50.962;5.340;2024-02-14T15:47:14;13.40;99.90
40848;DHT22;26570;50.962;5.340;2024-02-14T15:49:59;13.40;99.90
40848;DHT22;26570;50.962;5.340;2024-02-14T15:52:44;13.20;99.90
40848;DHT22;26570;50.962;5.340;2024-02-14T15:55:29;13.30;99.90
40848;DHT22;26570;50.962;5.340;2024-02-14T15:58:15;13.30;99.90
40848;DHT22;26570;50.962;5.340;2024-02-14T16:01:00;13.50;99.90
40848;DHT22;26570;50.962;5.340;2024-02-14T16:03:53;13.60;99.90
40848;DHT22;26570;50.962;5.340;2024-02-14T16:07:02;13.50;99.90
40848;DHT22;26570;50.962;5.340;2024-02-14T16:09:47;13.40;99.90
40848;DHT22;26570;50.962;5.340;2024-02-14T16:12:35;13.40;99.90
40848;DHT22;26570;50.962;5.340;2024-02-14T16:15:20;13.40;99.90
40848;DHT22;26570;50.962;5.340;2024-02-14T16:18:05;13.40;99.90
40848;DHT22;26570;50.962;5.340;2024-02-14T16:20:50;13.20;99.90
40848;DHT22;26570;50.962;5.340;2024-02-14T16:23:35;13.20;99.90
40848;DHT22;26570;50.962;5.340;2024-02-14T16:26:19;13.30;99.90
40848;DHT22;26570;50.962;5.340;2024-02-14T16:29:05;13.40;99.90
40848;DHT22;26570;50.962;5.340;2024-02-14T16:31:49;13.50;99.90
40848;DHT22;26570;50.962;5.340;2024-02-14T16:34:34;13.40;99.90
40848;DHT22;26570;50.962;5.340;2024-02-14T16:37:19;13.50;99.90
40848;DHT22;26570;50.962;5.340;2024-02-14T16:40:26;13.40;99.90
40848;DHT22;26570;50.962;5.340;2024-02-14T16:43:13;13.60;99.90
40848;DHT22;26570;50.962;5.340;2024-02-14T16:46:03;13.10;99.90
40848;DHT22;26570;50.962;5.340;2024-02-14T16:48:49;13.10;99.90
40848;DHT22;26570;50.962;5.340;2024-02-14T16:51:41;13.30;99.90
40848;DHT22;26570;50.962;5.340;2024-02-14T16:54:26;13.20;99.90
40848;DHT22;26570;50.962;5.340;2024-02-14T16:57:13;13.40;99.90
40848;DHT22;26570;50.962;5.340;2024-02-14T16:59:58;13.30;99.90
40848;DHT22;26570;50.962;5.340;2024-02-14T17:02:43;13.40;99.90
40848;DHT22;26570;50.962;5.340;2024-02-14T17:05:29;13.40;99.90
40848;DHT22;26570;50.962;5.340;2024-02-14T17:08:14;13.30;99.90
40848;DHT22;26570;50.962;5.340;2024-02-14T17:11:02;13.40;99.90
40848;DHT22;26570;50.962;5.340;2024-02-14T17:13:47;13.50;99.90
40848;DHT22;26570;50.962;5.340;2024-02-14T17:16:32;13.50;99.90
40848;DHT22;26570;50.962;5.340;2024-02-14T17:19:17;13.40;99.90
40848;DHT22;26570;50.962;5.340;2024-02-14T17:22:01;13.50;99.90
40848;DHT22;26570;50.962;5.340;2024-02-14T17:24:49;13.40;99.90
40848;DHT22;26570;50.962;5.340;2024-02-14T17:27:39;13.60;99.90
40848;DHT22;26570;50.962;5.340;2024-02-14T17:30:25;13.60;99.90
40848;DHT22;26570;50.962;5.340;2024-02-14T17:33:13;13.50;99.90
40848;DHT22;26570;50.962;5.340;2024-02-14T17:35:59;13.40;99.90
40848;DHT22;26570;50.962;5.340;2024-02-14T17:38:44;13.20;99.90
40848;DHT22;26570;50.962;5.340;2024-02-14T17:41:29;13.20;99.90
40848;DHT22;26570;50.962;5.340;2024-02-14T17:44:13;13.30;99.90
40848;DHT22;26570;50.962;5.340;2024-02-14T17:47:02;13.30;99.90
40848;DHT22;26570;50.962;5.340;2024-02-14T17:49:47;13.30;99.90
40848;DHT22;26570;50.962;5.340;2024-02-14T17:52:32;13.30;99.90
40848;DHT22;26570;50.962;5.340;2024-02-14T17:55:23;13.30;99.90
40848;DHT22;26570;50.962;5.340;2024-02-14T17:58:40;13.40;99.90
40848;DHT22;26570;50.962;5.340;2024-02-14T18:02:22;13.30;99.90
40848;DHT22;26570;50.962;5.340;2024-02-14T18:10:15;13.40;99.90
40848;DHT22;26570;50.962;5.340;2024-02-14T18:22:21;13.50;99.90
40848;DHT22;26570;50.962;5.340;2024-02-14T18:26:09;13.40;99.90
40848;DHT22;26570;50.962;5.340;2024-02-14T18:29:06;13.60;99.90
40848;DHT22;26570;50.962;5.340;2024-02-14T18:33:04;13.50;99.90
40848;DHT22;26570;50.962;5.340;2024-02-14T18:37:03;13.40;99.90
40848;DHT22;26570;50.962;5.340;2024-02-14T18:40:32;13.40;99.90
40848;DHT22;26570;50.962;5.340;2024-02-14T18:48:15;13.50;99.90
40848;DHT22;26570;50.962;5.340;2024-02-14T18:59:04;13.50;99.90
40848;DHT22;26570;50.962;5.340;2024-02-14T19:02:50;13.70;99.90